Time;durP1;ratioP1;P1;durP2;ratioP2;P2;SDS_P1;SDS_P2;PMS_P1;PMS_P2;Temp;Humidity;BMP_temperature;BMP_pressure;BME280_temperature;BME280_humidity;BME280_pressure;Samples;Min_cycle;Max_cycle;Signal;HPM_P1;HPM_P2
2021/05/16 04:57:48;;;;;;;1.80;0.70;;;12.20;96.80;;;;;;5529259;23;20065;-79
2021/05/16 05:00:18;;;;;;;3.35;0.70;;;12.30;96.80;;;;;;4933754;29;20359;-81
2021/05/16 05:02:46;;;;;;;3.45;0.98;;;12.30;96.90;;;;;;4921082;29;20074;-82
2021/05/16 05:05:15;;;;;;;3.28;0.75;;;12.30;96.80;;;;;;4936923;29;20557;-83
2021/05/16 05:07:42;;;;;;;2.60;0.70;;;12.30;96.80;;;;;;4936885;29;20082;-82
2021/05/16 05:10:11;;;;;;;1.83;0.60;;;12.30;97.00;;;;;;4936611;29;20221;-83
2021/05/16 05:12:38;;;;;;;2.03;0.60;;;12.30;97.00;;;;;;4936113;29;20083;-83
2021/05/16 05:15:06;;;;;;;1.08;0.47;;;12.20;97.00;;;;;;4936889;29;20087;-83
2021/05/16 05:17:34;;;;;;;2.00;0.60;;;12.20;96.90;;;;;;4937195;29;20074;-83
2021/05/16 05:20:00;;;;;;;1.88;0.60;;;12.20;96.90;;;;;;4936796;29;20091;-82
2021/05/16 05:22:27;;;;;;;1.70;0.60;;;12.20;97.00;;;;;;4931687;29;20058;-83
2021/05/16 05:24:54;;;;;;;2.63;0.75;;;12.20;97.10;;;;;;4932825;29;20130;-83
2021/05/16 05:27:20;;;;;;;1.05;0.40;;;12.20;97.00;;;;;;4936637;29;20094;-82
2021/05/16 05:29:47;;;;;;;2.47;0.60;;;12.30;96.90;;;;;;4936180;29;20127;-82
2021/05/16 05:32:13;;;;;;;1.75;0.52;;;12.20;96.80;;;;;;4936186;29;20079;-82
2021/05/16 05:34:41;;;;;;;2.58;0.60;;;12.30;96.70;;;;;;4936501;29;20078;-82
2021/05/16 05:37:08;;;;;;;2.53;0.70;;;12.30;96.60;;;;;;4936292;29;20176;-81
2021/05/16 05:39:35;;;;;;;1.58;0.60;;;12.40;96.50;;;;;;4932498;29;20138;-82
2021/05/16 05:42:01;;;;;;;1.73;0.50;;;12.40;96.50;;;;;;4927668;29;20052;-88
2021/05/16 05:44:28;;;;;;;2.05;0.68;;;12.40;96.40;;;;;;4946092;29;20099;-88
2021/05/16 05:46:55;;;;;;;3.92;0.60;;;12.40;96.30;;;;;;4940760;29;20082;-89
2021/05/16 05:49:23;;;;;;;2.15;0.60;;;12.40;96.30;;;;;;4938273;29;20460;-89
2021/05/16 05:51:50;;;;;;;1.77;0.47;;;12.30;96.50;;;;;;4937143;29;20048;-89
2021/05/16 05:54:17;;;;;;;2.00;0.57;;;12.30;96.60;;;;;;4937076;29;20174;-90
2021/05/16 05:56:44;;;;;;;2.08;0.57;;;12.30;96.90;;;;;;4937367;29;20138;-90
2021/05/16 05:59:11;;;;;;;1.52;0.40;;;12.30;97.00;;;;;;4920245;29;20087;-91
2021/05/16 06:01:37;;;;;;;1.63;0.47;;;12.30;97.00;;;;;;4937420;29;20058;-88
2021/05/16 06:04:04;;;;;;;2.65;0.60;;;12.30;97.00;;;;;;4936677;29;20134;-87
2021/05/16 06:06:31;;;;;;;2.08;0.60;;;12.30;97.00;;;;;;4936433;29;20094;-87
2021/05/16 06:08:58;;;;;;;1.52;0.40;;;12.40;96.90;;;;;;4937364;29;20079;-90
2021/05/16 06:11:25;;;;;;;2.75;0.50;;;12.40;96.90;;;;;;4936240;29;20553;-80
2021/05/16 06:13:51;;;;;;;1.70;0.45;;;12.40;96.80;;;;;;4935721;29;20127;-81
2021/05/16 06:16:18;;;;;;;1.17;0.35;;;12.40;96.90;;;;;;4935434;29;20059;-80
2021/05/16 06:18:45;;;;;;;2.13;0.55;;;12.40;96.90;;;;;;4935833;29;20545;-80
2021/05/16 06:21:12;;;;;;;1.65;0.52;;;12.50;96.90;;;;;;4933606;29;20094;-81
2021/05/16 06:23:46;;;;;;;1.23;0.40;;;12.50;96.90;;;;;;4928441;29;20481;-81
2021/05/16 06:26:14;;;;;;;2.60;0.38;;;12.60;96.70;;;;;;4933230;29;20054;-81
2021/05/16 06:28:41;;;;;;;0.77;0.35;;;12.60;96.50;;;;;;4933272;29;20079;-81
2021/05/16 06:31:07;;;;;;;1.35;0.40;;;12.70;96.60;;;;;;4934602;29;20094;-81
2021/05/16 06:33:34;;;;;;;0.47;0.20;;;12.80;96.40;;;;;;4931174;29;20052;-81
2021/05/16 06:36:03;;;;;;;1.17;0.38;;;12.90;96.20;;;;;;4926927;29;20458;-81
2021/05/16 06:38:29;;;;;;;1.65;0.50;;;12.90;95.80;;;;;;4930476;29;20040;-81
2021/05/16 06:40:56;;;;;;;1.30;0.40;;;13.00;95.40;;;;;;4930636;29;20091;-81
2021/05/16 06:43:23;;;;;;;1.45;0.50;;;13.10;95.20;;;;;;4934785;29;20083;-82
2021/05/16 06:45:50;;;;;;;1.40;0.40;;;13.10;95.00;;;;;;4935089;29;20632;-81
2021/05/16 06:48:17;;;;;;;2.10;0.57;;;13.20;94.20;;;;;;4917981;29;20044;-81
2021/05/16 06:50:45;;;;;;;1.63;0.43;;;13.20;94.20;;;;;;4931498;29;20130;-81
2021/05/16 06:53:12;;;;;;;1.45;0.40;;;13.20;94.20;;;;;;4918630;29;20106;-80
2021/05/16 06:55:38;;;;;;;1.55;0.50;;;13.20;94.20;;;;;;4937294;29;20071;-80
2021/05/16 06:58:05;;;;;;;2.35;0.60;;;13.30;94.10;;;;;;4932171;29;20142;-81
2021/05/16 07:00:32;;;;;;;2.78;0.60;;;13.30;94.00;;;;;;4933628;29;20071;-80
2021/05/16 07:02:59;;;;;;;2.88;0.80;;;13.30;93.80;;;;;;4935957;29;20130;-81
2021/05/16 07:05:26;;;;;;;1.50;0.50;;;13.40;94.10;;;;;;4939077;29;20052;-83
2021/05/16 07:07:52;;;;;;;2.90;0.77;;;13.40;94.00;;;;;;4939129;29;20103;-81
2021/05/16 07:10:19;;;;;;;2.65;0.52;;;13.40;94.30;;;;;;4938616;29;20143;-81
2021/05/16 07:12:46;;;;;;;2.30;0.50;;;13.50;94.00;;;;;;4938972;29;20051;-81
2021/05/16 07:15:13;;;;;;;2.97;0.63;;;13.60;94.10;;;;;;4938645;29;20135;-80
2021/05/16 07:17:41;;;;;;;2.38;0.60;;;13.60;93.40;;;;;;4916868;29;20464;-82
2021/05/16 07:20:09;;;;;;;2.40;0.55;;;13.60;93.20;;;;;;4938810;29;20135;-81
2021/05/16 07:22:36;;;;;;;1.73;0.60;;;13.60;93.70;;;;;;4934728;29;20043;-81
2021/05/16 07:25:04;;;;;;;2.13;0.70;;;13.60;93.20;;;;;;4938735;29;20098;-81
2021/05/16 07:27:31;;;;;;;2.65;0.75;;;13.60;93.20;;;;;;4936669;29;20557;-82
2021/05/16 07:29:57;;;;;;;2.17;0.60;;;13.60;93.00;;;;;;4931722;29;20048;-80
2021/05/16 07:32:24;;;;;;;2.50;0.60;;;13.60;93.10;;;;;;4930755;29;20055;-81
2021/05/16 07:34:52;;;;;;;3.20;0.77;;;13.70;92.90;;;;;;4938009;29;20051;-82
2021/05/16 07:37:19;;;;;;;3.10;0.60;;;13.80;92.90;;;;;;4932319;29;20497;-83
2021/05/16 07:39:46;;;;;;;2.67;0.70;;;13.80;92.00;;;;;;4921533;29;20489;-81
2021/05/16 07:42:12;;;;;;;3.50;0.60;;;13.80;92.60;;;;;;4938217;29;20087;-82
2021/05/16 07:44:39;;;;;;;2.13;0.57;;;13.90;92.60;;;;;;4938222;29;20487;-82
2021/05/16 07:47:05;;;;;;;4.50;1.13;;;14.00;91.90;;;;;;4938354;29;20130;-81
2021/05/16 07:49:32;;;;;;;3.58;0.77;;;13.90;91.90;;;;;;4938254;29;20070;-81
2021/05/16 07:52:00;;;;;;;3.92;0.93;;;14.00;91.80;;;;;;4938250;29;20134;-80
2021/05/16 07:54:26;;;;;;;4.78;0.80;;;14.00;91.60;;;;;;4938109;29;20048;-80
2021/05/16 07:56:53;;;;;;;3.83;0.95;;;14.00;91.30;;;;;;4938113;29;20075;-80
2021/05/16 07:59:20;;;;;;;3.50;0.80;;;14.10;91.30;;;;;;4937960;29;20139;-80
2021/05/16 08:01:47;;;;;;;3.78;1.10;;;14.10;91.10;;;;;;4938206;29;20111;-81
2021/05/16 08:04:13;;;;;;;3.83;1.13;;;14.10;91.30;;;;;;4937848;29;20094;-80
2021/05/16 08:06:40;;;;;;;3.95;0.80;;;14.10;90.90;;;;;;4937745;29;20067;-81
2021/05/16 08:09:08;;;;;;;4.97;1.00;;;14.20;91.20;;;;;;4936212;29;20130;-83
2021/05/16 08:11:35;;;;;;;3.92;1.08;;;14.30;90.80;;;;;;4937476;29;20079;-82
2021/05/16 08:14:02;;;;;;;4.43;1.10;;;14.40;90.70;;;;;;4937214;29;20052;-81
2021/05/16 08:16:31;;;;;;;5.93;1.48;;;14.50;90.60;;;;;;4938093;29;20134;-84
2021/05/16 08:18:57;;;;;;;3.65;0.80;;;14.50;90.30;;;;;;4936345;29;20052;-81
2021/05/16 08:21:24;;;;;;;6.10;1.23;;;14.60;90.30;;;;;;4934002;29;20138;-81
2021/05/16 08:23:51;;;;;;;3.72;0.90;;;14.70;89.70;;;;;;4937512;29;20075;-85
2021/05/16 08:26:18;;;;;;;4.65;0.90;;;14.60;88.80;;;;;;4937665;29;20158;-90
2021/05/16 08:28:45;;;;;;;5.72;1.35;;;14.60;89.40;;;;;;4938244;29;20101;-85
2021/05/16 08:31:12;;;;;;;5.00;1.38;;;14.60;88.80;;;;;;4916318;29;20130;-87
2021/05/16 08:33:39;;;;;;;4.35;1.20;;;14.60;87.50;;;;;;4931507;29;20135;-83
2021/05/16 08:36:06;;;;;;;5.53;1.25;;;14.60;87.40;;;;;;4937680;29;20079;-82
2021/05/16 08:38:33;;;;;;;4.22;1.05;;;14.60;87.50;;;;;;4936932;29;20090;-81
2021/05/16 08:40:59;;;;;;;4.65;1.08;;;14.60;87.70;;;;;;4936353;29;20151;-83
2021/05/16 08:43:27;;;;;;;5.95;1.85;;;14.50;88.30;;;;;;4926884;29;20142;-85
2021/05/16 08:45:54;;;;;;;11.15;2.85;;;14.60;88.60;;;;;;4943052;29;20454;-84
2021/05/16 08:48:21;;;;;;;5.07;1.23;;;14.60;89.30;;;;;;4923585;29;20054;-85
2021/05/16 08:50:48;;;;;;;3.70;1.00;;;14.60;90.00;;;;;;4936872;29;20143;-80
2021/05/16 08:53:15;;;;;;;5.28;1.05;;;14.70;90.00;;;;;;4936873;29;20075;-81
2021/05/16 08:55:41;;;;;;;6.22;1.38;;;14.80;89.00;;;;;;4939881;29;20159;-81
2021/05/16 08:58:08;;;;;;;4.75;1.00;;;14.80;89.30;;;;;;4937149;29;20740;-81
2021/05/16 09:00:44;;;;;;;3.67;0.88;;;14.90;89.50;;;;;;4936213;29;20052;-82
2021/05/16 09:03:12;;;;;;;4.10;1.10;;;14.90;88.70;;;;;;4932034;29;20127;-82
2021/05/16 09:05:41;;;;;;;3.83;1.02;;;15.00;88.10;;;;;;4935976;29;20058;-79
2021/05/16 09:08:12;;;;;;;4.30;1.02;;;15.00;88.00;;;;;;4937195;29;20544;-81
2021/05/16 09:10:41;;;;;;;5.80;1.20;;;15.10;84.60;;;;;;4927728;29;20134;-84
2021/05/16 09:13:17;;;;;;;5.32;1.00;;;15.20;85.00;;;;;;4935783;29;20134;-83
2021/05/16 09:16:09;;;;;;;4.35;0.95;;;15.30;84.00;;;;;;4907762;29;20056;-83
2021/05/16 09:18:42;;;;;;;4.15;1.02;;;15.40;82.50;;;;;;4931182;29;20051;-80
2021/05/16 09:21:29;;;;;;;5.75;1.20;;;15.60;82.10;;;;;;4935109;29;20138;-80
2021/05/16 09:24:13;;;;;;;4.80;1.10;;;15.70;80.30;;;;;;4935851;29;20052;-84
2021/05/16 09:26:56;;;;;;;5.90;1.20;;;15.80;80.40;;;;;;4929534;29;20097;-83
2021/05/16 09:29:27;;;;;;;4.07;1.25;;;15.90;79.90;;;;;;4936384;29;20079;-84
2021/05/16 09:31:56;;;;;;;5.47;1.00;;;16.10;78.50;;;;;;4936399;29;20139;-84
2021/05/16 09:34:24;;;;;;;6.18;1.20;;;16.20;74.80;;;;;;4936809;29;20055;-85
2021/05/16 09:36:52;;;;;;;5.57;1.33;;;16.20;72.90;;;;;;4919646;29;20056;-85
2021/05/16 09:39:22;;;;;;;3.15;0.95;;;16.20;72.70;;;;;;4936137;29;20054;-83
2021/05/16 09:42:05;;;;;;;5.15;1.00;;;16.10;71.70;;;;;;4916595;29;20091;-81
2021/05/16 09:44:40;;;;;;;3.78;1.08;;;16.20;69.90;;;;;;4936190;29;20048;-84
2021/05/16 09:47:19;;;;;;;4.57;0.98;;;16.10;68.00;;;;;;4904112;29;20453;-84
2021/05/16 09:49:49;;;;;;;5.32;1.25;;;16.10;69.40;;;;;;4922145;29;20047;-81
2021/05/16 09:52:17;;;;;;;4.55;1.10;;;16.10;68.90;;;;;;4934943;29;20097;-81
2021/05/16 09:55:03;;;;;;;6.05;1.20;;;16.00;69.10;;;;;;4936268;29;20474;-81
2021/05/16 09:57:32;;;;;;;4.60;1.23;;;16.10;69.00;;;;;;4934161;29;20131;-82
2021/05/16 10:00:00;;;;;;;3.75;0.93;;;16.20;68.00;;;;;;4935978;29;20071;-81
2021/05/16 10:02:29;;;;;;;5.32;1.42;;;16.20;68.40;;;;;;4935749;29;20052;-82
2021/05/16 10:04:59;;;;;;;4.93;0.90;;;16.30;67.00;;;;;;4935849;29;20131;-79
2021/05/16 10:07:26;;;;;;;5.82;1.30;;;16.40;66.40;;;;;;4935870;29;20055;-80
2021/05/16 10:09:54;;;;;;;5.40;1.10;;;16.50;65.80;;;;;;4918897;29;20139;-80
2021/05/16 10:12:22;;;;;;;4.07;1.25;;;16.60;68.60;;;;;;4934006;29;20071;-82
2021/05/16 10:14:52;;;;;;;6.22;1.23;;;16.70;63.20;;;;;;4935787;29;20500;-81
2021/05/16 10:17:20;;;;;;;8.95;3.65;;;16.70;62.40;;;;;;4935545;29;20138;-79
2021/05/16 10:19:50;;;;;;;4.93;1.17;;;16.80;62.20;;;;;;4935856;29;20155;-84
2021/05/16 10:22:17;;;;;;;5.70;1.02;;;16.80;62.40;;;;;;4935493;29;20047;-83
2021/05/16 10:24:46;;;;;;;4.35;0.90;;;16.90;62.00;;;;;;4935576;29;20391;-82
2021/05/16 10:27:21;;;;;;;3.58;1.00;;;16.90;63.30;;;;;;4935201;29;20134;-80
2021/05/16 10:29:54;;;;;;;3.30;0.95;;;16.80;60.80;;;;;;4935673;29;20404;-80
2021/05/16 10:32:26;;;;;;;4.20;1.10;;;16.80;61.80;;;;;;4934886;29;20066;-79
2021/05/16 10:34:59;;;;;;;4.03;1.08;;;16.80;62.90;;;;;;4935434;29;20048;-80
2021/05/16 10:37:44;;;;;;;4.13;1.02;;;16.90;60.80;;;;;;4935005;29;20130;-80
2021/05/16 10:40:32;;;;;;;4.25;1.05;;;17.00;59.10;;;;;;4931955;29;20161;-80
2021/05/16 10:43:02;;;;;;;3.10;0.90;;;17.10;58.60;;;;;;4933112;29;20074;-81
2021/05/16 10:45:39;;;;;;;4.20;1.15;;;17.10;58.90;;;;;;4915936;29;20055;-80
2021/05/16 10:48:15;;;;;;;4.22;1.02;;;17.10;60.00;;;;;;4932685;29;20062;-80
2021/05/16 10:50:57;;;;;;;4.53;1.20;;;17.20;58.00;;;;;;4932745;29;20059;-81
2021/05/16 10:53:29;;;;;;;4.25;0.80;;;17.20;59.20;;;;;;4931942;29;20048;-81
2021/05/16 10:56:21;;;;;;;4.53;1.08;;;17.20;59.70;;;;;;4932359;29;20095;-80
2021/05/16 10:58:52;;;;;;;4.10;0.90;;;17.40;59.20;;;;;;4914420;29;20560;-86
2021/05/16 11:01:31;;;;;;;5.25;1.33;;;17.50;57.90;;;;;;4926375;29;20048;-86
2021/05/16 11:04:00;;;;;;;3.53;0.88;;;17.50;57.20;;;;;;4933282;29;20135;-89
2021/05/16 11:06:58;;;;;;;4.90;1.13;;;17.60;56.50;;;;;;4932507;29;20091;-84
2021/05/16 11:09:34;;;;;;;2.83;0.70;;;17.70;56.40;;;;;;4927345;29;20127;-86
2021/05/16 11:12:02;;;;;;;3.88;1.15;;;17.80;55.90;;;;;;4928295;29;20052;-83
2021/05/16 11:14:39;;;;;;;5.50;0.93;;;17.90;53.80;;;;;;4934463;29;20139;-83
2021/05/16 11:17:10;;;;;;;4.68;1.20;;;17.80;55.40;;;;;;4924275;29;20059;-85
2021/05/16 11:19:38;;;;;;;4.32;1.00;;;17.80;57.30;;;;;;4932104;29;20486;-82
2021/05/16 11:22:15;;;;;;;2.97;0.85;;;17.80;57.50;;;;;;4932481;29;20055;-82
2021/05/16 11:24:48;;;;;;;4.38;0.98;;;17.80;55.70;;;;;;4913822;29;20048;-77
2021/05/16 11:27:29;;;;;;;3.45;0.93;;;17.90;57.90;;;;;;4921195;29;20480;-77
2021/05/16 11:30:07;;;;;;;4.43;0.88;;;17.90;59.20;;;;;;4932003;29;20147;-85
2021/05/16 11:32:35;;;;;;;2.97;0.70;;;18.00;58.80;;;;;;4932439;29;20564;-85
2021/05/16 11:35:23;;;;;;;3.63;0.80;;;18.20;58.60;;;;;;4932485;29;20540;-85
2021/05/16 11:37:56;;;;;;;4.18;0.90;;;18.20;59.30;;;;;;4918855;29;20131;-84
2021/05/16 11:40:28;;;;;;;3.53;0.90;;;18.20;60.20;;;;;;4934359;29;20083;-86
2021/05/16 11:43:06;;;;;;;4.20;0.80;;;18.10;58.20;;;;;;4934605;29;20044;-90
2021/05/16 11:45:40;;;;;;;2.60;0.70;;;18.10;58.10;;;;;;4936081;29;20040;-89
2021/05/16 11:48:23;;;;;;;2.90;0.80;;;18.10;58.30;;;;;;4936794;29;20174;-89
2021/05/16 11:50:51;;;;;;;4.05;0.80;;;18.10;58.10;;;;;;4920177;29;20055;-90
2021/05/16 11:53:23;;;;;;;4.05;1.00;;;18.10;57.70;;;;;;4935987;29;20090;-90
2021/05/16 11:55:50;;;;;;;5.13;0.90;;;18.10;57.80;;;;;;4935681;29;20382;-89
2021/05/16 11:58:17;;;;;;;3.05;0.80;;;18.10;56.70;;;;;;4935216;29;20142;-89
2021/05/16 12:00:44;;;;;;;4.28;1.02;;;18.00;57.30;;;;;;4935753;29;20063;-89
2021/05/16 12:03:14;;;;;;;3.78;0.90;;;18.00;58.00;;;;;;4935780;29;20533;-88
2021/05/16 12:05:42;;;;;;;3.75;0.75;;;18.10;57.50;;;;;;4935413;29;20044;-88
2021/05/16 12:08:24;;;;;;;3.88;0.85;;;18.20;58.00;;;;;;4935304;29;20099;-88
2021/05/16 12:11:10;;;;;;;4.50;0.90;;;18.40;58.50;;;;;;4935086;29;20413;-87
2021/05/16 12:13:37;;;;;;;4.47;1.02;;;18.60;57.50;;;;;;4935302;29;20048;-88
2021/05/16 12:16:19;;;;;;;4.60;1.50;;;18.70;54.70;;;;;;4933929;29;20075;-88
2021/05/16 12:18:48;;;;;;;10.57;4.20;;;18.80;55.50;;;;;;4938591;29;20079;-88
2021/05/16 12:21:16;;;;;;;3.25;0.85;;;19.00;54.80;;;;;;4937965;29;20082;-89
2021/05/16 12:23:56;;;;;;;3.17;0.85;;;19.10;53.20;;;;;;4938260;29;20075;-88
2021/05/16 12:26:23;;;;;;;3.22;0.80;;;19.30;52.80;;;;;;4938484;29;20122;-86
2021/05/16 12:28:51;;;;;;;2.83;0.80;;;19.40;52.30;;;;;;4938050;29;20091;-88
2021/05/16 12:31:19;;;;;;;3.88;0.80;;;19.50;50.70;;;;;;4937994;29;20136;-87
2021/05/16 12:33:48;;;;;;;4.43;0.80;;;19.50;51.40;;;;;;4937848;29;20153;-89
2021/05/16 12:36:16;;;;;;;3.00;0.75;;;19.50;48.60;;;;;;4938139;29;20519;-85
2021/05/16 12:38:45;;;;;;;2.78;0.80;;;19.40;48.60;;;;;;4938525;29;20098;-89
2021/05/16 12:41:19;;;;;;;2.63;0.90;;;19.30;48.80;;;;;;4938404;29;20135;-92
2021/05/16 12:44:04;;;;;;;2.67;0.70;;;19.20;48.30;;;;;;4924460;29;20135;-87
2021/05/16 12:46:42;;;;;;;3.05;0.95;;;19.00;48.80;;;;;;4929906;29;20387;-93
2021/05/16 12:49:10;;;;;;;3.50;0.80;;;18.90;48.30;;;;;;4938337;29;20134;-88
2021/05/16 12:51:37;;;;;;;3.45;0.90;;;18.80;49.90;;;;;;4936995;29;20557;-93
2021/05/16 12:54:22;;;;;;;2.50;0.82;;;18.70;50.50;;;;;;4938815;29;20102;-94
2021/05/16 12:57:04;;;;;;;3.35;0.70;;;18.60;49.90;;;;;;4938370;29;20079;-89
2021/05/16 12:59:35;;;;;;;3.25;0.88;;;18.60;50.10;;;;;;4931579;29;20060;-90
2021/05/16 13:02:10;;;;;;;2.42;0.70;;;18.50;50.10;;;;;;4884015;29;20056;-90
2021/05/16 13:04:52;;;;;;;6.22;1.42;;;18.50;50.60;;;;;;4910510;29;20048;-86
2021/05/16 13:07:35;;;;;;;3.00;0.82;;;18.40;50.80;;;;;;4917347;29;20048;-89
2021/05/16 13:10:29;;;;;;;5.03;1.00;;;18.40;50.70;;;;;;4899889;29;20073;-87
2021/05/16 13:13:12;;;;;;;5.32;0.90;;;18.30;51.10;;;;;;4915863;29;20494;-85
2021/05/16 13:15:42;;;;;;;3.78;1.00;;;18.30;51.70;;;;;;4911259;29;20513;-86
2021/05/16 13:18:25;;;;;;;3.72;0.95;;;18.20;52.00;;;;;;4909841;29;20062;-87
2021/05/16 13:20:53;;;;;;;2.50;0.90;;;18.20;52.40;;;;;;4916940;29;20100;-84
2021/05/16 13:23:21;;;;;;;4.18;0.95;;;18.20;52.00;;;;;;4915604;29;20051;-83
2021/05/16 13:25:50;;;;;;;4.13;0.90;;;18.10;52.60;;;;;;4916987;29;20056;-83
2021/05/16 13:28:20;;;;;;;2.78;0.80;;;18.10;52.60;;;;;;4916026;29;20139;-83
2021/05/16 13:30:54;;;;;;;4.25;1.20;;;18.10;52.80;;;;;;4916990;29;20059;-82
2021/05/16 13:33:21;;;;;;;3.25;0.85;;;18.10;52.50;;;;;;4908650;29;20052;-82
2021/05/16 13:35:48;;;;;;;3.92;0.90;;;18.10;52.70;;;;;;4910989;29;20083;-82
2021/05/16 13:38:14;;;;;;;2.50;0.73;;;18.10;52.30;;;;;;4901374;29;20097;-84
2021/05/16 13:40:41;;;;;;;4.13;1.20;;;18.10;52.20;;;;;;4900706;29;20083;-86
2021/05/16 13:43:08;;;;;;;7.35;3.25;;;18.20;53.40;;;;;;4917079;29;20135;-86
2021/05/16 13:45:35;;;;;;;2.78;0.90;;;18.20;54.20;;;;;;4906817;29;20166;-82
2021/05/16 13:48:02;;;;;;;3.50;1.33;;;18.20;55.30;;;;;;4900251;29;20076;-89
2021/05/16 13:50:29;;;;;;;2.53;0.70;;;18.10;55.10;;;;;;4900757;29;20095;-84
2021/05/16 13:52:55;;;;;;;2.53;0.77;;;18.10;55.80;;;;;;4911636;29;20124;-86
2021/05/16 13:55:22;;;;;;;3.90;0.82;;;18.00;56.90;;;;;;4908185;29;20048;-88
2021/05/16 13:57:49;;;;;;;2.88;0.77;;;18.00;58.00;;;;;;4915813;29;20569;-91
2021/05/16 14:00:16;;;;;;;4.35;0.90;;;18.00;59.20;;;;;;4918822;29;20134;-84
2021/05/16 14:02:44;;;;;;;2.80;0.70;;;17.90;60.10;;;;;;4936380;29;20126;-89
2021/05/16 14:05:12;;;;;;;4.45;1.23;;;17.80;61.30;;;;;;4933973;29;20040;-86
2021/05/16 14:07:39;;;;;;;3.33;0.90;;;17.70;63.30;;;;;;4929004;29;20139;-84
2021/05/16 14:10:07;;;;;;;3.95;1.00;;;17.60;64.70;;;;;;4939133;29;20090;-91
2021/05/16 14:12:33;;;;;;;3.17;1.00;;;17.50;64.70;;;;;;4935861;29;20138;-83
2021/05/16 14:15:00;;;;;;;2.08;0.65;;;17.40;64.60;;;;;;4936638;29;20474;-85
2021/05/16 14:17:27;;;;;;;3.67;0.80;;;17.30;64.80;;;;;;4936055;29;20572;-86
2021/05/16 14:19:54;;;;;;;2.67;0.93;;;17.30;65.20;;;;;;4934932;29;20086;-91
2021/05/16 14:22:21;;;;;;;2.10;0.60;;;17.20;65.40;;;;;;4934155;29;20405;-82
2021/05/16 14:24:48;;;;;;;2.38;0.80;;;17.20;65.70;;;;;;4934901;29;20553;-82
2021/05/16 14:27:15;;;;;;;3.03;0.90;;;17.10;66.00;;;;;;4935049;29;20075;-81
2021/05/16 14:29:41;;;;;;;2.80;0.75;;;17.00;66.60;;;;;;4935684;29;20079;-81
2021/05/16 14:32:08;;;;;;;3.92;1.10;;;16.90;67.00;;;;;;4918819;29;20178;-81
2021/05/16 14:34:35;;;;;;;3.28;0.90;;;16.80;68.00;;;;;;4935552;29;20047;-81
2021/05/16 14:37:03;;;;;;;3.55;0.90;;;16.80;68.80;;;;;;4935171;29;20113;-82
2021/05/16 14:39:30;;;;;;;2.97;1.10;;;16.80;69.40;;;;;;4935596;29;20087;-81
2021/05/16 14:41:56;;;;;;;3.03;0.95;;;16.80;70.00;;;;;;4935386;29;20490;-81
2021/05/16 14:44:23;;;;;;;3.05;0.90;;;16.80;70.60;;;;;;4918086;29;20413;-82
2021/05/16 14:46:50;;;;;;;2.30;0.63;;;16.80;71.00;;;;;;4918778;29;20048;-81
2021/05/16 14:49:17;;;;;;;2.33;0.82;;;16.80;72.00;;;;;;4935493;29;20079;-81
2021/05/16 14:51:44;;;;;;;2.60;0.88;;;16.80;72.10;;;;;;4935495;29;20135;-82
2021/05/16 14:54:11;;;;;;;3.05;0.80;;;16.80;72.60;;;;;;4935686;29;20055;-81
2021/05/16 14:56:38;;;;;;;2.25;0.60;;;16.80;73.00;;;;;;4934809;29;20087;-81
2021/05/16 14:59:06;;;;;;;3.15;0.60;;;16.90;73.60;;;;;;4934710;29;20080;-83
2021/05/16 15:01:33;;;;;;;2.58;0.80;;;16.90;74.20;;;;;;4935277;29;20127;-82
2021/05/16 15:04:00;;;;;;;9.25;4.65;;;17.00;74.00;;;;;;4935690;29;20132;-82
2021/05/16 15:06:29;;;;;;;9.68;4.35;;;17.00;73.30;;;;;;4935542;29;20052;-82
2021/05/16 15:08:57;;;;;;;3.63;1.10;;;17.20;74.40;;;;;;4942049;29;20047;-82
2021/05/16 15:11:25;;;;;;;4.63;0.88;;;17.60;74.80;;;;;;4920092;29;20067;-82
2021/05/16 15:13:52;;;;;;;2.33;0.73;;;18.10;74.00;;;;;;4934827;29;20054;-82
2021/05/16 15:16:19;;;;;;;1.98;0.70;;;18.50;72.60;;;;;;4938353;29;20124;-79
2021/05/16 15:18:46;;;;;;;3.20;0.70;;;18.70;72.00;;;;;;4938660;29;20062;-84
2021/05/16 15:21:13;;;;;;;1.70;0.63;;;18.80;69.60;;;;;;4939368;29;20086;-81
2021/05/16 15:23:42;;;;;;;2.92;0.70;;;18.90;69.70;;;;;;4939349;29;20123;-81
2021/05/16 15:26:10;;;;;;;1.50;0.45;;;19.00;69.00;;;;;;4939090;29;20052;-82
2021/05/16 15:28:39;;;;;;;1.63;0.50;;;19.10;68.80;;;;;;4937650;29;20545;-83
2021/05/16 15:31:06;;;;;;;1.98;0.50;;;19.30;67.30;;;;;;4938258;29;20051;-81
2021/05/16 15:33:33;;;;;;;1.48;0.50;;;19.40;68.30;;;;;;4938318;29;20072;-83
2021/05/16 15:36:01;;;;;;;1.90;0.60;;;19.40;69.50;;;;;;4939218;29;20056;-83
2021/05/16 15:38:29;;;;;;;2.28;0.60;;;19.60;68.60;;;;;;4938852;29;20537;-79
2021/05/16 15:40:57;;;;;;;3.53;0.85;;;19.60;68.70;;;;;;4938731;29;20048;-83
2021/05/16 15:43:26;;;;;;;1.75;0.60;;;19.80;67.60;;;;;;4939390;29;20051;-82
2021/05/16 15:45:54;;;;;;;2.13;0.60;;;19.70;65.50;;;;;;4937835;29;20181;-86
2021/05/16 15:48:21;;;;;;;1.60;0.52;;;19.60;63.40;;;;;;4933497;29;20569;-86
2021/05/16 15:50:48;;;;;;;1.45;0.50;;;19.30;62.30;;;;;;4938347;29;22014;-84
2021/05/16 15:53:14;;;;;;;1.38;0.47;;;19.10;62.70;;;;;;4939113;29;20083;-85
2021/05/16 15:55:42;;;;;;;1.77;0.40;;;18.80;62.10;;;;;;4938293;29;20127;-83
2021/05/16 15:58:11;;;;;;;1.40;0.50;;;18.60;62.50;;;;;;4938003;29;20086;-83
2021/05/16 16:00:38;;;;;;;2.00;0.60;;;18.40;63.10;;;;;;4953831;29;20058;-85
2021/05/16 16:03:06;;;;;;;1.55;0.40;;;18.20;64.10;;;;;;4938557;29;20473;-82
2021/05/16 16:05:33;;;;;;;1.95;0.50;;;18.10;64.10;;;;;;4938027;29;20103;-84
2021/05/16 16:07:59;;;;;;;1.48;0.50;;;18.00;64.50;;;;;;4937907;29;20465;-83
2021/05/16 16:10:27;;;;;;;2.42;0.88;;;18.00;64.80;;;;;;4938517;29;20074;-84
2021/05/16 16:12:55;;;;;;;1.52;0.50;;;18.20;65.10;;;;;;4937531;29;20058;-83
2021/05/16 16:15:22;;;;;;;4.25;1.90;;;18.70;65.90;;;;;;4937938;29;20099;-82
2021/05/16 16:17:50;;;;;;;1.48;0.50;;;19.50;63.60;;;;;;4938140;29;20082;-82
2021/05/16 16:20:18;;;;;;;1.40;0.50;;;19.90;62.30;;;;;;4938240;29;20451;-80
2021/05/16 16:22:45;;;;;;;2.50;0.57;;;20.30;61.50;;;;;;4937943;29;20496;-79
2021/05/16 16:25:13;;;;;;;1.50;0.60;;;20.60;61.40;;;;;;4937672;29;20048;-79
2021/05/16 16:27:40;;;;;;;1.42;0.43;;;20.90;60.20;;;;;;4930294;29;20052;-81
2021/05/16 16:30:09;;;;;;;1.45;0.50;;;21.20;59.40;;;;;;4932654;29;20494;-82
2021/05/16 16:32:37;;;;;;;2.03;0.50;;;21.40;56.90;;;;;;4936977;29;20114;-83
2021/05/16 16:35:05;;;;;;;2.53;0.40;;;21.50;57.00;;;;;;4937904;29;20054;-82
2021/05/16 16:37:33;;;;;;;1.50;0.40;;;21.40;55.30;;;;;;4937155;29;20047;-82
2021/05/16 16:40:00;;;;;;;1.15;0.52;;;21.40;55.00;;;;;;4937625;29;20062;-81
2021/05/16 16:42:28;;;;;;;1.10;0.40;;;21.60;54.80;;;;;;4937266;29;20054;-82
2021/05/16 16:44:54;;;;;;;1.10;0.30;;;21.60;53.50;;;;;;4937247;29;20083;-81
2021/05/16 16:47:21;;;;;;;0.95;0.35;;;21.60;53.20;;;;;;4937102;29;20087;-80
2021/05/16 16:49:50;;;;;;;4.35;1.83;;;21.60;53.30;;;;;;4925257;29;20162;-81
2021/05/16 16:52:16;;;;;;;5.20;2.03;;;21.60;52.90;;;;;;4936596;29;20092;-81
2021/05/16 16:54:44;;;;;;;2.60;0.88;;;21.60;52.50;;;;;;4936027;29;20494;-79
2021/05/16 16:57:11;;;;;;;1.95;0.43;;;21.60;53.10;;;;;;4937160;29;20078;-81
2021/05/16 16:59:38;;;;;;;0.95;0.30;;;21.90;52.30;;;;;;4937238;29;20166;-81
2021/05/16 17:02:05;;;;;;;1.17;0.20;;;21.90;52.20;;;;;;4936813;29;20055;-83
2021/05/16 17:04:32;;;;;;;0.75;0.30;;;21.90;51.70;;;;;;4937220;29;20055;-82
2021/05/16 17:06:59;;;;;;;0.57;0.28;;;21.80;51.30;;;;;;4935950;29;20485;-80
2021/05/16 17:09:27;;;;;;;0.65;0.30;;;21.60;51.40;;;;;;4936721;29;20062;-81
2021/05/16 17:11:55;;;;;;;1.13;0.40;;;21.30;52.30;;;;;;4935912;29;20544;-81
2021/05/16 17:14:22;;;;;;;0.70;0.30;;;21.20;53.30;;;;;;4934416;29;20079;-80
2021/05/16 17:16:50;;;;;;;1.48;0.57;;;21.10;53.00;;;;;;4926925;29;20077;-81
2021/05/16 17:19:17;;;;;;;1.08;0.43;;;21.00;53.40;;;;;;4931123;29;20474;-79
2021/05/16 17:21:45;;;;;;;1.05;0.50;;;20.90;53.70;;;;;;4920094;29;20417;-81
2021/05/16 17:24:12;;;;;;;1.13;0.40;;;20.90;53.80;;;;;;4939193;29;20122;-80
2021/05/16 17:26:39;;;;;;;2.08;0.50;;;21.00;54.10;;;;;;4955678;29;20079;-80
2021/05/16 17:29:07;;;;;;;0.98;0.40;;;21.00;54.10;;;;;;4950844;29;20468;-80
2021/05/16 17:31:34;;;;;;;2.58;0.70;;;21.00;54.00;;;;;;4935801;29;20134;-79
2021/05/16 17:34:04;;;;;;;1.05;0.38;;;21.00;53.70;;;;;;4935925;29;20047;-79
2021/05/16 17:36:31;;;;;;;0.75;0.32;;;20.90;53.80;;;;;;4932596;29;20089;-79
2021/05/16 17:38:58;;;;;;;1.33;0.25;;;20.70;54.10;;;;;;4930727;29;20067;-79
2021/05/16 17:41:25;;;;;;;6.93;3.47;;;20.50;54.10;;;;;;4932766;29;20451;-79
2021/05/16 17:43:51;;;;;;;3.50;1.60;;;20.40;53.60;;;;;;4932290;29;20043;-79
2021/05/16 17:46:19;;;;;;;2.05;0.50;;;20.10;53.90;;;;;;4932481;29;20086;-79
2021/05/16 17:48:46;;;;;;;1.27;0.40;;;20.00;54.10;;;;;;4931913;29;20055;-79
2021/05/16 17:51:15;;;;;;;0.88;0.20;;;19.80;54.80;;;;;;4932777;29;20196;-79
2021/05/16 17:53:43;;;;;;;1.30;0.20;;;19.70;55.20;;;;;;4932044;29;20051;-79
2021/05/16 17:56:10;;;;;;;0.95;0.20;;;19.40;55.70;;;;;;4932623;29;20067;-78